sensor_id;sensor_type;location;lat;lon;timestamp;pressure;altitude;pressure_sealevel;temperature;humidity
51530;BME280;37613;51.788;21.582;2022-12-18T00:00:52;101381.95;;;-6.58;96.84
51530;BME280;37613;51.788;21.582;2022-12-18T00:05:14;101392.07;;;-6.58;96.85
51530;BME280;37613;51.788;21.582;2022-12-18T00:09:17;101401.93;;;-6.56;96.89
51530;BME280;37613;51.788;21.582;2022-12-18T00:13:19;101398.11;;;-6.57;96.95
51530;BME280;37613;51.788;21.582;2022-12-18T00:17:21;101405.27;;;-6.57;96.86
51530;BME280;37613;51.788;21.582;2022-12-18T00:21:23;101413.52;;;-6.56;96.91
51530;BME280;37613;51.788;21.582;2022-12-18T00:25:25;101411.36;;;-6.56;96.92
51530;BME280;37613;51.788;21.582;2022-12-18T00:29:27;101415.54;;;-6.58;96.92
51530;BME280;37613;51.788;21.582;2022-12-18T00:33:29;101417.31;;;-6.63;97.19
51530;BME280;37613;51.788;21.582;2022-12-18T00:37:33;101427.59;;;-6.64;97.09
51530;BME280;37613;51.788;21.582;2022-12-18T00:41:35;101440.67;;;-6.60;97.11
51530;BME280;37613;51.788;21.582;2022-12-18T00:45:56;101443.84;;;-6.56;97.04
51530;BME280;37613;51.788;21.582;2022-12-18T00:49:58;101443.50;;;-6.57;97.07
51530;BME280;37613;51.788;21.582;2022-12-18T00:54:00;101445.34;;;-6.57;97.10
51530;BME280;37613;51.788;21.582;2022-12-18T00:58:02;101449.73;;;-6.53;97.10
51530;BME280;37613;51.788;21.582;2022-12-18T01:02:04;101460.48;;;-6.51;97.00
51530;BME280;37613;51.788;21.582;2022-12-18T01:06:11;101463.37;;;-6.48;97.05
51530;BME280;37613;51.788;21.582;2022-12-18T01:10:13;101459.36;;;-6.46;97.06
51530;BME280;37613;51.788;21.582;2022-12-18T01:14:15;101460.94;;;-6.45;97.01
51530;BME280;37613;51.788;21.582;2022-12-18T01:18:17;101466.48;;;-6.45;97.04
51530;BME280;37613;51.788;21.582;2022-12-18T01:22:19;101473.59;;;-6.40;97.17
51530;BME280;37613;51.788;21.582;2022-12-18T01:26:22;101482.10;;;-6.36;97.05
51530;BME280;37613;51.788;21.582;2022-12-18T01:30:24;101487.92;;;-6.35;96.99
51530;BME280;37613;51.788;21.582;2022-12-18T01:34:26;101489.40;;;-6.38;96.93
51530;BME280;37613;51.788;21.582;2022-12-18T01:38:28;101494.53;;;-6.36;97.05
51530;BME280;37613;51.788;21.582;2022-12-18T01:42:31;101502.17;;;-6.33;97.05
51530;BME280;37613;51.788;21.582;2022-12-18T01:46:33;101505.77;;;-6.30;97.06
51530;BME280;37613;51.788;21.582;2022-12-18T01:50:41;101502.67;;;-6.27;97.02
51530;BME280;37613;51.788;21.582;2022-12-18T01:54:45;101511.95;;;-6.26;97.00
51530;BME280;37613;51.788;21.582;2022-12-18T01:59:00;101519.60;;;-6.26;96.95
51530;BME280;37613;51.788;21.582;2022-12-18T02:03:03;101528.72;;;-6.25;97.09
51530;BME280;37613;51.788;21.582;2022-12-18T02:07:30;101524.08;;;-6.25;97.07
51530;BME280;37613;51.788;21.582;2022-12-18T02:12:03;101526.80;;;-6.23;97.07
51530;BME280;37613;51.788;21.582;2022-12-18T02:20:39;101536.67;;;-6.18;97.08
51530;BME280;37613;51.788;21.582;2022-12-18T02:25:20;101540.30;;;-6.16;97.01
51530;BME280;37613;51.788;21.582;2022-12-18T02:29:44;101546.42;;;-6.17;96.92
51530;BME280;37613;51.788;21.582;2022-12-18T02:33:50;101556.16;;;-6.19;96.86
51530;BME280;37613;51.788;21.582;2022-12-18T02:37:53;101562.63;;;-6.19;96.98
51530;BME280;37613;51.788;21.582;2022-12-18T02:41:56;101561.98;;;-6.19;97.03
51530;BME280;37613;51.788;21.582;2022-12-18T02:46:00;101566.45;;;-6.19;96.98
51530;BME280;37613;51.788;21.582;2022-12-18T02:50:30;101568.46;;;-6.18;96.96
51530;BME280;37613;51.788;21.582;2022-12-18T02:59:04;101577.83;;;-6.14;97.03
51530;BME280;37613;51.788;21.582;2022-12-18T03:03:22;101586.39;;;-6.11;97.10
51530;BME280;37613;51.788;21.582;2022-12-18T03:07:37;101592.52;;;-6.07;97.12
51530;BME280;37613;51.788;21.582;2022-12-18T03:11:44;101598.05;;;-6.04;97.14
51530;BME280;37613;51.788;21.582;2022-12-18T03:16:10;101604.84;;;-6.01;97.17
51530;BME280;37613;51.788;21.582;2022-12-18T03:20:17;101616.16;;;-5.96;97.22
51530;BME280;37613;51.788;21.582;2022-12-18T03:24:21;101626.60;;;-5.92;97.18
51530;BME280;37613;51.788;21.582;2022-12-18T03:28:27;101626.52;;;-5.87;97.18
51530;BME280;37613;51.788;21.582;2022-12-18T03:32:41;101629.31;;;-5.84;97.16
51530;BME280;37613;51.788;21.582;2022-12-18T03:36:45;101631.02;;;-5.82;97.16
51530;BME280;37613;51.788;21.582;2022-12-18T03:40:59;101637.83;;;-5.80;97.06
51530;BME280;37613;51.788;21.582;2022-12-18T03:49:26;101646.29;;;-5.81;97.09
51530;BME280;37613;51.788;21.582;2022-12-18T03:53:46;101649.57;;;-5.81;96.99
51530;BME280;37613;51.788;21.582;2022-12-18T03:57:52;101654.21;;;-5.81;97.02
51530;BME280;37613;51.788;21.582;2022-12-18T04:01:55;101658.11;;;-5.79;97.09
51530;BME280;37613;51.788;21.582;2022-12-18T04:06:00;101663.73;;;-5.78;97.11
51530;BME280;37613;51.788;21.582;2022-12-18T04:10:06;101663.14;;;-5.77;97.09
51530;BME280;37613;51.788;21.582;2022-12-18T04:14:09;101661.17;;;-5.75;97.15
51530;BME280;37613;51.788;21.582;2022-12-18T04:18:11;101662.56;;;-5.73;97.09
51530;BME280;37613;51.788;21.582;2022-12-18T04:22:13;101668.72;;;-5.71;97.13
51530;BME280;37613;51.788;21.582;2022-12-18T04:26:15;101669.24;;;-5.73;97.01
51530;BME280;37613;51.788;21.582;2022-12-18T04:30:17;101670.92;;;-5.72;97.08
51530;BME280;37613;51.788;21.582;2022-12-18T04:34:20;101679.20;;;-5.70;97.03
51530;BME280;37613;51.788;21.582;2022-12-18T04:38:22;101685.63;;;-5.67;97.15
51530;BME280;37613;51.788;21.582;2022-12-18T04:42:24;101686.65;;;-5.66;97.07
51530;BME280;37613;51.788;21.582;2022-12-18T04:46:26;101691.64;;;-5.67;97.05
51530;BME280;37613;51.788;21.582;2022-12-18T04:50:29;101703.31;;;-5.66;97.08
51530;BME280;37613;51.788;21.582;2022-12-18T04:54:31;101711.46;;;-5.65;97.10
51530;BME280;37613;51.788;21.582;2022-12-18T04:58:34;101711.58;;;-5.65;97.01
51530;BME280;37613;51.788;21.582;2022-12-18T05:02:37;101719.19;;;-5.64;97.05
51530;BME280;37613;51.788;21.582;2022-12-18T05:06:39;101725.23;;;-5.64;97.00
51530;BME280;37613;51.788;21.582;2022-12-18T05:10:41;101733.44;;;-5.62;97.01
51530;BME280;37613;51.788;21.582;2022-12-18T05:14:43;101740.41;;;-5.61;97.02
51530;BME280;37613;51.788;21.582;2022-12-18T05:18:45;101747.91;;;-5.61;97.00
51530;BME280;37613;51.788;21.582;2022-12-18T05:22:47;101750.08;;;-5.61;97.04
51530;BME280;37613;51.788;21.582;2022-12-18T05:26:49;101756.73;;;-5.59;97.02
51530;BME280;37613;51.788;21.582;2022-12-18T05:30:52;101768.35;;;-5.58;97.02
51530;BME280;37613;51.788;21.582;2022-12-18T05:34:55;101778.18;;;-5.56;97.00
51530;BME280;37613;51.788;21.582;2022-12-18T05:38:58;101783.19;;;-5.57;96.88
51530;BME280;37613;51.788;21.582;2022-12-18T05:43:02;101786.00;;;-5.57;96.91
51530;BME280;37613;51.788;21.582;2022-12-18T05:47:06;101793.59;;;-5.58;96.75
51530;BME280;37613;51.788;21.582;2022-12-18T05:51:11;101798.83;;;-5.62;96.72
51530;BME280;37613;51.788;21.582;2022-12-18T05:55:13;101803.75;;;-5.65;96.92
51530;BME280;37613;51.788;21.582;2022-12-18T05:59:15;101807.18;;;-5.70;96.75
51530;BME280;37613;51.788;21.582;2022-12-18T06:03:17;101813.41;;;-5.72;96.86
51530;BME280;37613;51.788;21.582;2022-12-18T06:07:19;101816.15;;;-5.72;96.83
51530;BME280;37613;51.788;21.582;2022-12-18T06:11:23;101822.35;;;-5.74;96.78
51530;BME280;37613;51.788;21.582;2022-12-18T06:15:26;101831.67;;;-5.73;96.79
51530;BME280;37613;51.788;21.582;2022-12-18T06:19:28;101838.10;;;-5.73;96.84
51530;BME280;37613;51.788;21.582;2022-12-18T06:23:30;101843.98;;;-5.73;96.82
51530;BME280;37613;51.788;21.582;2022-12-18T06:27:32;101851.34;;;-5.74;96.73
51530;BME280;37613;51.788;21.582;2022-12-18T06:31:35;101861.34;;;-5.79;96.59
51530;BME280;37613;51.788;21.582;2022-12-18T06:35:37;101870.77;;;-5.80;96.65
51530;BME280;37613;51.788;21.582;2022-12-18T06:39:39;101876.51;;;-5.83;96.63
51530;BME280;37613;51.788;21.582;2022-12-18T06:43:42;101884.11;;;-5.85;96.37
51530;BME280;37613;51.788;21.582;2022-12-18T06:47:44;101890.61;;;-5.88;96.42
51530;BME280;37613;51.788;21.582;2022-12-18T06:51:46;101898.37;;;-5.88;96.43
51530;BME280;37613;51.788;21.582;2022-12-18T06:55:49;101905.31;;;-5.90;96.37
51530;BME280;37613;51.788;21.582;2022-12-18T06:59:52;101908.60;;;-5.90;96.49
51530;BME280;37613;51.788;21.582;2022-12-18T07:03:55;101914.39;;;-5.87;96.61
51530;BME280;37613;51.788;21.582;2022-12-18T07:07:58;101920.56;;;-5.85;96.50
51530;BME280;37613;51.788;21.582;2022-12-18T07:12:00;101923.66;;;-5.81;96.56
51530;BME280;37613;51.788;21.582;2022-12-18T07:16:15;101926.77;;;-5.78;96.40
51530;BME280;37613;51.788;21.582;2022-12-18T07:20:18;101934.58;;;-5.79;96.23
51530;BME280;37613;51.788;21.582;2022-12-18T07:24:20;101948.19;;;-5.81;96.27
51530;BME280;37613;51.788;21.582;2022-12-18T07:28:22;101959.70;;;-5.79;96.34
51530;BME280;37613;51.788;21.582;2022-12-18T07:32:24;101970.83;;;-5.78;96.16
51530;BME280;37613;51.788;21.582;2022-12-18T07:36:26;101979.29;;;-5.76;96.35
51530;BME280;37613;51.788;21.582;2022-12-18T07:40:28;101978.31;;;-5.73;96.27
51530;BME280;37613;51.788;21.582;2022-12-18T07:44:30;101984.40;;;-5.76;96.04
51530;BME280;37613;51.788;21.582;2022-12-18T07:48:32;101992.85;;;-5.81;95.70
51530;BME280;37613;51.788;21.582;2022-12-18T07:52:34;101994.86;;;-5.80;95.99
51530;BME280;37613;51.788;21.582;2022-12-18T07:56:38;102004.16;;;-5.75;96.03
51530;BME280;37613;51.788;21.582;2022-12-18T08:00:40;102005.63;;;-5.69;96.13
51530;BME280;37613;51.788;21.582;2022-12-18T08:04:42;102016.20;;;-5.59;96.27
51530;BME280;37613;51.788;21.582;2022-12-18T08:08:44;102023.26;;;-5.53;96.25
51530;BME280;37613;51.788;21.582;2022-12-18T08:12:50;102029.42;;;-5.45;96.31
51530;BME280;37613;51.788;21.582;2022-12-18T08:16:53;102037.57;;;-5.39;96.14
51530;BME280;37613;51.788;21.582;2022-12-18T08:20:55;102042.11;;;-5.38;95.84
51530;BME280;37613;51.788;21.582;2022-12-18T08:24:58;102045.33;;;-5.37;95.88
51530;BME280;37613;51.788;21.582;2022-12-18T08:29:00;102051.39;;;-5.32;95.95
51530;BME280;37613;51.788;21.582;2022-12-18T08:33:02;102057.83;;;-5.35;95.71
51530;BME280;37613;51.788;21.582;2022-12-18T08:37:05;102058.52;;;-5.36;95.77
51530;BME280;37613;51.788;21.582;2022-12-18T08:41:10;102066.92;;;-5.32;95.99
51530;BME280;37613;51.788;21.582;2022-12-18T08:45:12;102076.00;;;-5.19;96.28
51530;BME280;37613;51.788;21.582;2022-12-18T08:49:14;102080.07;;;-5.05;96.07
51530;BME280;37613;51.788;21.582;2022-12-18T08:53:17;102081.48;;;-5.01;95.73
51530;BME280;37613;51.788;21.582;2022-12-18T08:57:19;102083.36;;;-4.98;95.14
51530;BME280;37613;51.788;21.582;2022-12-18T09:01:22;102089.99;;;-5.01;94.12
51530;BME280;37613;51.788;21.582;2022-12-18T09:05:24;102095.16;;;-5.00;94.58
51530;BME280;37613;51.788;21.582;2022-12-18T09:09:26;102093.99;;;-4.88;95.01
51530;BME280;37613;51.788;21.582;2022-12-18T09:13:28;102099.17;;;-4.70;95.28
51530;BME280;37613;51.788;21.582;2022-12-18T09:17:30;102103.63;;;-4.61;95.26
51530;BME280;37613;51.788;21.582;2022-12-18T09:21:34;102102.84;;;-4.56;95.18
51530;BME280;37613;51.788;21.582;2022-12-18T09:25:40;102106.23;;;-4.59;94.64
51530;BME280;37613;51.788;21.582;2022-12-18T09:29:42;102113.13;;;-4.62;94.66
51530;BME280;37613;51.788;21.582;2022-12-18T09:33:44;102118.09;;;-4.66;94.50
51530;BME280;37613;51.788;21.582;2022-12-18T09:37:49;102131.02;;;-4.72;94.65
51530;BME280;37613;51.788;21.582;2022-12-18T09:41:53;102125.50;;;-4.87;93.97
51530;BME280;37613;51.788;21.582;2022-12-18T09:46:00;102127.47;;;-4.92;94.37
51530;BME280;37613;51.788;21.582;2022-12-18T09:54:25;102131.02;;;-4.87;94.44
51530;BME280;37613;51.788;21.582;2022-12-18T10:03:15;102136.84;;;-4.90;94.63
51530;BME280;37613;51.788;21.582;2022-12-18T10:07:19;102148.81;;;-4.84;94.49
51530;BME280;37613;51.788;21.582;2022-12-18T10:16:00;102143.79;;;-4.94;94.39
51530;BME280;37613;51.788;21.582;2022-12-18T10:20:18;102140.26;;;-4.96;94.52
51530;BME280;37613;51.788;21.582;2022-12-18T10:25:01;102139.92;;;-4.93;94.69
51530;BME280;37613;51.788;21.582;2022-12-18T10:29:17;102143.44;;;-4.80;95.01
51530;BME280;37613;51.788;21.582;2022-12-18T10:33:31;102147.07;;;-4.69;94.95
51530;BME280;37613;51.788;21.582;2022-12-18T10:38:05;102149.34;;;-4.50;95.01
51530;BME280;37613;51.788;21.582;2022-12-18T10:42:19;102149.98;;;-4.48;93.85
51530;BME280;37613;51.788;21.582;2022-12-18T10:46:23;102156.98;;;-4.45;93.13
51530;BME280;37613;51.788;21.582;2022-12-18T10:50:29;102171.52;;;-4.55;91.95
51530;BME280;37613;51.788;21.582;2022-12-18T10:54:33;102171.53;;;-4.62;92.11
51530;BME280;37613;51.788;21.582;2022-12-18T10:58:38;102168.06;;;-4.56;92.89
51530;BME280;37613;51.788;21.582;2022-12-18T11:02:41;102166.32;;;-4.50;93.15
51530;BME280;37613;51.788;21.582;2022-12-18T11:07:07;102151.80;;;-4.49;93.02
51530;BME280;37613;51.788;21.582;2022-12-18T11:11:21;102155.31;;;-4.37;93.75
51530;BME280;37613;51.788;21.582;2022-12-18T11:15:27;102164.77;;;-4.26;93.33
51530;BME280;37613;51.788;21.582;2022-12-18T11:19:36;102168.63;;;-4.21;93.00
51530;BME280;37613;51.788;21.582;2022-12-18T11:23:52;102175.42;;;-4.14;93.21
51530;BME280;37613;51.788;21.582;2022-12-18T11:28:04;102176.23;;;-4.10;93.54
51530;BME280;37613;51.788;21.582;2022-12-18T11:36:31;102169.77;;;-4.03;93.50
51530;BME280;37613;51.788;21.582;2022-12-18T11:40:37;102173.40;;;-4.12;92.59
51530;BME280;37613;51.788;21.582;2022-12-18T11:44:50;102178.62;;;-4.21;92.66
51530;BME280;37613;51.788;21.582;2022-12-18T11:49:22;102179.06;;;-4.24;92.65
51530;BME280;37613;51.788;21.582;2022-12-18T11:53:27;102175.67;;;-4.19;93.15
51530;BME280;37613;51.788;21.582;2022-12-18T11:57:47;102180.11;;;-4.15;93.18
51530;BME280;37613;51.788;21.582;2022-12-18T12:01:55;102185.00;;;-4.14;92.54
51530;BME280;37613;51.788;21.582;2022-12-18T12:06:16;102187.17;;;-4.17;92.52
51530;BME280;37613;51.788;21.582;2022-12-18T12:23:29;102203.84;;;-4.23;93.11
51530;BME280;37613;51.788;21.582;2022-12-18T12:32:14;102229.32;;;-4.19;93.14
51530;BME280;37613;51.788;21.582;2022-12-18T12:40:51;102236.98;;;-3.93;93.38
51530;BME280;37613;51.788;21.582;2022-12-18T12:44:57;102237.86;;;-4.01;92.96
51530;BME280;37613;51.788;21.582;2022-12-18T12:49:09;102242.92;;;-4.05;93.04
51530;BME280;37613;51.788;21.582;2022-12-18T12:53:22;102249.23;;;-4.14;93.00
51530;BME280;37613;51.788;21.582;2022-12-18T12:57:33;102245.19;;;-4.17;93.19
51530;BME280;37613;51.788;21.582;2022-12-18T13:06:03;102249.48;;;-4.19;93.11
51530;BME280;37613;51.788;21.582;2022-12-18T13:14:33;102271.11;;;-4.65;91.70
51530;BME280;37613;51.788;21.582;2022-12-18T13:18:36;102272.81;;;-4.76;92.15
51530;BME280;37613;51.788;21.582;2022-12-18T13:22:47;102277.96;;;-4.84;91.95
51530;BME280;37613;51.788;21.582;2022-12-18T13:26:50;102281.27;;;-4.83;92.58
51530;BME280;37613;51.788;21.582;2022-12-18T13:30:56;102276.60;;;-4.76;92.90
51530;BME280;37613;51.788;21.582;2022-12-18T13:43:28;102291.68;;;-4.87;92.33
51530;BME280;37613;51.788;21.582;2022-12-18T13:47:36;102294.01;;;-4.93;92.14
51530;BME280;37613;51.788;21.582;2022-12-18T13:51:44;102301.48;;;-5.00;92.20
51530;BME280;37613;51.788;21.582;2022-12-18T13:55:49;102307.92;;;-5.02;92.30
51530;BME280;37613;51.788;21.582;2022-12-18T13:59:52;102309.38;;;-5.02;92.48
51530;BME280;37613;51.788;21.582;2022-12-18T14:04:12;102313.75;;;-4.99;92.66
51530;BME280;37613;51.788;21.582;2022-12-18T14:08:15;102316.87;;;-4.95;92.62
51530;BME280;37613;51.788;21.582;2022-12-18T14:12:21;102317.06;;;-4.96;92.47
51530;BME280;37613;51.788;21.582;2022-12-18T14:16:43;102312.03;;;-4.99;92.48
51530;BME280;37613;51.788;21.582;2022-12-18T14:20:47;102311.77;;;-5.03;92.25
51530;BME280;37613;51.788;21.582;2022-12-18T14:25:24;102318.30;;;-5.06;92.25
51530;BME280;37613;51.788;21.582;2022-12-18T14:29:29;102319.20;;;-5.11;92.23
51530;BME280;37613;51.788;21.582;2022-12-18T14:33:32;102326.89;;;-5.17;92.24
51530;BME280;37613;51.788;21.582;2022-12-18T14:37:34;102334.95;;;-5.19;92.27
51530;BME280;37613;51.788;21.582;2022-12-18T14:41:36;102344.14;;;-5.24;92.31
51530;BME280;37613;51.788;21.582;2022-12-18T14:45:45;102348.40;;;-5.27;92.35
51530;BME280;37613;51.788;21.582;2022-12-18T14:49:48;102345.45;;;-5.26;92.81
51530;BME280;37613;51.788;21.582;2022-12-18T14:54:04;102344.27;;;-5.10;92.80
51530;BME280;37613;51.788;21.582;2022-12-18T14:58:14;102342.77;;;-5.17;92.24
51530;BME280;37613;51.788;21.582;2022-12-18T15:02:25;102353.66;;;-5.27;91.91
51530;BME280;37613;51.788;21.582;2022-12-18T15:06:34;102357.39;;;-5.33;91.95
51530;BME280;37613;51.788;21.582;2022-12-18T15:10:46;102357.63;;;-5.37;92.10
51530;BME280;37613;51.788;21.582;2022-12-18T15:14:57;102368.17;;;-5.41;92.19
51530;BME280;37613;51.788;21.582;2022-12-18T15:19:00;102368.45;;;-5.41;92.38
51530;BME280;37613;51.788;21.582;2022-12-18T15:23:02;102363.80;;;-5.34;92.73
51530;BME280;37613;51.788;21.582;2022-12-18T15:27:41;102361.66;;;-5.28;92.80
51530;BME280;37613;51.788;21.582;2022-12-18T15:32:18;102365.95;;;-5.27;92.43
51530;BME280;37613;51.788;21.582;2022-12-18T15:36:23;102368.91;;;-5.30;92.34
51530;BME280;37613;51.788;21.582;2022-12-18T15:40:25;102372.58;;;-5.29;92.44
51530;BME280;37613;51.788;21.582;2022-12-18T15:44:29;102371.56;;;-5.23;92.60
51530;BME280;37613;51.788;21.582;2022-12-18T15:48:41;102373.27;;;-5.20;92.57
51530;BME280;37613;51.788;21.582;2022-12-18T15:52:55;102375.58;;;-5.18;92.47
51530;BME280;37613;51.788;21.582;2022-12-18T15:56:59;102380.63;;;-5.19;92.40
51530;BME280;37613;51.788;21.582;2022-12-18T16:01:23;102379.59;;;-5.19;92.49
51530;BME280;37613;51.788;21.582;2022-12-18T16:05:27;102391.97;;;-5.24;92.31
51530;BME280;37613;51.788;21.582;2022-12-18T16:09:31;102399.92;;;-5.30;92.27
51530;BME280;37613;51.788;21.582;2022-12-18T16:13:34;102402.32;;;-5.27;92.53
51530;BME280;37613;51.788;21.582;2022-12-18T16:17:37;102400.75;;;-5.32;92.26
51530;BME280;37613;51.788;21.582;2022-12-18T16:21:40;102410.03;;;-5.42;92.16
51530;BME280;37613;51.788;21.582;2022-12-18T16:25:43;102421.02;;;-5.49;92.14
51530;BME280;37613;51.788;21.582;2022-12-18T16:29:45;102428.63;;;-5.56;92.18
51530;BME280;37613;51.788;21.582;2022-12-18T16:33:49;102431.77;;;-5.63;92.18
51530;BME280;37613;51.788;21.582;2022-12-18T16:37:51;102436.37;;;-5.67;92.23
51530;BME280;37613;51.788;21.582;2022-12-18T16:41:54;102430.97;;;-5.72;92.21
51530;BME280;37613;51.788;21.582;2022-12-18T16:46:00;102428.20;;;-5.75;92.24
51530;BME280;37613;51.788;21.582;2022-12-18T16:50:06;102422.56;;;-5.76;92.29
51530;BME280;37613;51.788;21.582;2022-12-18T16:54:11;102420.23;;;-5.74;92.36
51530;BME280;37613;51.788;21.582;2022-12-18T16:58:17;102423.48;;;-5.73;92.29
51530;BME280;37613;51.788;21.582;2022-12-18T17:02:25;102423.15;;;-5.76;92.15
51530;BME280;37613;51.788;21.582;2022-12-18T17:06:30;102416.18;;;-5.81;92.07
51530;BME280;37613;51.788;21.582;2022-12-18T17:10:37;102410.46;;;-5.81;92.17
51530;BME280;37613;51.788;21.582;2022-12-18T17:14:40;102413.54;;;-5.79;92.34
51530;BME280;37613;51.788;21.582;2022-12-18T17:18:43;102415.73;;;-5.79;92.17
51530;BME280;37613;51.788;21.582;2022-12-18T17:22:49;102423.52;;;-5.80;92.10
51530;BME280;37613;51.788;21.582;2022-12-18T17:26:52;102427.67;;;-5.83;92.05
51530;BME280;37613;51.788;21.582;2022-12-18T17:30:56;102433.17;;;-5.87;92.02
51530;BME280;37613;51.788;21.582;2022-12-18T17:34:59;102441.81;;;-5.92;92.04
51530;BME280;37613;51.788;21.582;2022-12-18T17:39:03;102448.13;;;-5.95;92.06
51530;BME280;37613;51.788;21.582;2022-12-18T17:43:08;102445.48;;;-5.97;92.07
51530;BME280;37613;51.788;21.582;2022-12-18T17:47:12;102449.84;;;-6.01;92.07
51530;BME280;37613;51.788;21.582;2022-12-18T17:51:19;102456.26;;;-6.05;92.12
51530;BME280;37613;51.788;21.582;2022-12-18T17:55:24;102447.56;;;-6.04;92.20
51530;BME280;37613;51.788;21.582;2022-12-18T17:59:26;102446.21;;;-6.04;92.07
51530;BME280;37613;51.788;21.582;2022-12-18T18:03:31;102445.43;;;-6.09;91.93
51530;BME280;37613;51.788;21.582;2022-12-18T18:07:35;102450.79;;;-6.14;91.95
51530;BME280;37613;51.788;21.582;2022-12-18T18:11:38;102454.92;;;-6.17;92.16
51530;BME280;37613;51.788;21.582;2022-12-18T18:15:59;102457.61;;;-6.17;92.26
51530;BME280;37613;51.788;21.582;2022-12-18T18:20:02;102461.58;;;-6.14;92.25
51530;BME280;37613;51.788;21.582;2022-12-18T18:24:06;102465.21;;;-6.14;92.11
51530;BME280;37613;51.788;21.582;2022-12-18T18:28:10;102478.27;;;-6.13;92.17
51530;BME280;37613;51.788;21.582;2022-12-18T18:32:15;102481.20;;;-6.12;92.17
51530;BME280;37613;51.788;21.582;2022-12-18T18:36:18;102489.21;;;-6.13;92.15
51530;BME280;37613;51.788;21.582;2022-12-18T18:40:22;102484.39;;;-6.16;92.05
51530;BME280;37613;51.788;21.582;2022-12-18T18:44:25;102482.42;;;-6.16;92.09
51530;BME280;37613;51.788;21.582;2022-12-18T18:48:34;102480.46;;;-6.18;92.05
51530;BME280;37613;51.788;21.582;2022-12-18T18:52:37;102479.20;;;-6.19;92.03
51530;BME280;37613;51.788;21.582;2022-12-18T18:56:43;102479.60;;;-6.18;92.13
51530;BME280;37613;51.788;21.582;2022-12-18T19:00:56;102486.93;;;-6.17;92.19
51530;BME280;37613;51.788;21.582;2022-12-18T19:05:02;102484.83;;;-6.20;92.21
51530;BME280;37613;51.788;21.582;2022-12-18T19:09:06;102481.34;;;-6.20;92.24
51530;BME280;37613;51.788;21.582;2022-12-18T19:13:12;102481.41;;;-6.17;92.21
51530;BME280;37613;51.788;21.582;2022-12-18T19:17:29;102480.56;;;-6.18;92.04
51530;BME280;37613;51.788;21.582;2022-12-18T19:22:57;102490.80;;;-6.18;92.06
51530;BME280;37613;51.788;21.582;2022-12-18T19:27:00;102500.82;;;-6.22;92.03
51530;BME280;37613;51.788;21.582;2022-12-18T19:31:06;102499.92;;;-6.27;92.05
51530;BME280;37613;51.788;21.582;2022-12-18T19:35:11;102497.02;;;-6.31;91.99
51530;BME280;37613;51.788;21.582;2022-12-18T19:39:17;102491.55;;;-6.36;92.02
51530;BME280;37613;51.788;21.582;2022-12-18T19:43:20;102495.20;;;-6.40;92.02
51530;BME280;37613;51.788;21.582;2022-12-18T19:47:23;102509.43;;;-6.46;92.04
51530;BME280;37613;51.788;21.582;2022-12-18T19:51:27;102511.63;;;-6.48;92.07
51530;BME280;37613;51.788;21.582;2022-12-18T19:55:32;102508.04;;;-6.49;92.17
51530;BME280;37613;51.788;21.582;2022-12-18T19:59:35;102506.30;;;-6.50;92.12
51530;BME280;37613;51.788;21.582;2022-12-18T20:03:38;102502.03;;;-6.52;92.09
51530;BME280;37613;51.788;21.582;2022-12-18T20:07:42;102512.50;;;-6.55;92.03
51530;BME280;37613;51.788;21.582;2022-12-18T20:11:47;102525.27;;;-6.59;92.07
51530;BME280;37613;51.788;21.582;2022-12-18T20:15:50;102537.23;;;-6.61;92.11
51530;BME280;37613;51.788;21.582;2022-12-18T20:19:53;102540.80;;;-6.61;92.22
51530;BME280;37613;51.788;21.582;2022-12-18T20:23:56;102544.69;;;-6.62;92.07
51530;BME280;37613;51.788;21.582;2022-12-18T20:28:00;102545.27;;;-6.68;91.95
51530;BME280;37613;51.788;21.582;2022-12-18T20:32:04;102534.40;;;-6.75;91.96
51530;BME280;37613;51.788;21.582;2022-12-18T20:36:17;102525.11;;;-6.79;92.12
51530;BME280;37613;51.788;21.582;2022-12-18T20:40:22;102522.60;;;-6.82;92.01
51530;BME280;37613;51.788;21.582;2022-12-18T20:44:25;102516.41;;;-6.85;92.01
51530;BME280;37613;51.788;21.582;2022-12-18T20:48:31;102504.28;;;-6.89;92.04
51530;BME280;37613;51.788;21.582;2022-12-18T20:52:34;102505.05;;;-6.92;91.99
51530;BME280;37613;51.788;21.582;2022-12-18T20:56:36;102501.98;;;-6.96;92.04
51530;BME280;37613;51.788;21.582;2022-12-18T21:00:40;102503.35;;;-7.04;91.93
51530;BME280;37613;51.788;21.582;2022-12-18T21:04:43;102494.73;;;-7.11;91.96
51530;BME280;37613;51.788;21.582;2022-12-18T21:08:46;102486.86;;;-7.14;92.02
51530;BME280;37613;51.788;21.582;2022-12-18T21:12:50;102485.01;;;-7.16;92.05
51530;BME280;37613;51.788;21.582;2022-12-18T21:16:54;102487.09;;;-7.18;92.07
51530;BME280;37613;51.788;21.582;2022-12-18T21:20:57;102496.00;;;-7.24;91.98
51530;BME280;37613;51.788;21.582;2022-12-18T21:24:59;102506.56;;;-7.27;91.86
51530;BME280;37613;51.788;21.582;2022-12-18T21:29:03;102515.15;;;-7.31;91.99
51530;BME280;37613;51.788;21.582;2022-12-18T21:33:05;102513.39;;;-7.34;92.07
51530;BME280;37613;51.788;21.582;2022-12-18T21:37:08;102516.49;;;-7.37;92.09
51530;BME280;37613;51.788;21.582;2022-12-18T21:41:10;102518.90;;;-7.40;92.07
51530;BME280;37613;51.788;21.582;2022-12-18T21:45:35;102525.08;;;-7.39;92.16
51530;BME280;37613;51.788;21.582;2022-12-18T21:49:37;102526.56;;;-7.38;92.21
51530;BME280;37613;51.788;21.582;2022-12-18T21:53:39;102520.55;;;-7.37;92.20
51530;BME280;37613;51.788;21.582;2022-12-18T21:57:42;102522.69;;;-7.41;92.25
51530;BME280;37613;51.788;21.582;2022-12-18T22:01:44;102521.39;;;-7.38;92.30
51530;BME280;37613;51.788;21.582;2022-12-18T22:05:47;102515.05;;;-7.36;92.25
51530;BME280;37613;51.788;21.582;2022-12-18T22:09:49;102517.76;;;-7.35;92.25
51530;BME280;37613;51.788;21.582;2022-12-18T22:13:51;102509.27;;;-7.36;92.15
51530;BME280;37613;51.788;21.582;2022-12-18T22:17:53;102499.04;;;-7.40;92.13
51530;BME280;37613;51.788;21.582;2022-12-18T22:21:55;102492.46;;;-7.40;92.17